createdAt,value
2019-02-20T00:00:02.904Z,17.33
2019-02-20T00:02:32.252Z,17.07
2019-02-20T00:05:01.588Z,16.33
2019-02-20T00:07:30.956Z,16.20
2019-02-20T00:10:00.380Z,16.73
2019-02-20T00:12:30.276Z,15.73
2019-02-20T00:14:59.569Z,15.27
2019-02-20T00:17:28.926Z,15.60
2019-02-20T00:19:58.242Z,15.23
2019-02-20T00:22:27.532Z,16.20
2019-02-20T00:24:56.885Z,15.47
2019-02-20T00:27:26.204Z,15.23
2019-02-20T00:29:55.535Z,15.47
2019-02-20T00:32:24.820Z,15.97
2019-02-20T00:34:54.228Z,15.47
2019-02-20T00:37:23.524Z,16.30
2019-02-20T00:39:52.803Z,15.10
2019-02-20T00:42:22.195Z,15.80
2019-02-20T00:44:59.570Z,16.57
2019-02-20T00:47:51.368Z,16.30
2019-02-20T00:50:21.900Z,16.50
2019-02-20T00:52:59.385Z,16.50
2019-02-20T00:55:28.670Z,16.77
2019-02-20T00:57:57.985Z,16.43
2019-02-20T01:00:27.308Z,16.70
2019-02-20T01:02:56.628Z,18.20
2019-02-20T01:05:25.930Z,17.70
2019-02-20T01:07:55.336Z,17.30
2019-02-20T01:10:24.783Z,17.90
2019-02-20T01:12:54.140Z,17.40
2019-02-20T01:15:23.493Z,18.40
2019-02-20T01:17:52.812Z,18.03
2019-02-20T01:20:25.589Z,18.23
2019-02-20T01:22:59.847Z,19.03
2019-02-20T01:25:25.913Z,18.50
2019-02-20T01:27:55.243Z,18.93
2019-02-20T01:30:24.526Z,18.47
2019-02-20T01:32:53.840Z,18.87
2019-02-20T01:35:23.123Z,18.37
2019-02-20T01:37:52.450Z,17.57
2019-02-20T01:40:21.728Z,18.63
2019-02-20T01:42:51.024Z,16.80
2019-02-20T01:45:20.356Z,17.33
2019-02-20T01:47:49.791Z,17.63
2019-02-20T01:50:19.144Z,17.90
2019-02-20T01:52:48.416Z,17.77
2019-02-20T01:55:17.700Z,17.97
2019-02-20T01:57:47.101Z,16.87
2019-02-20T02:00:16.516Z,17.50
2019-02-20T02:02:45.900Z,17.50
2019-02-20T02:05:16.044Z,16.90
2019-02-20T02:07:46.048Z,17.17
2019-02-20T02:10:15.432Z,17.30
2019-02-20T02:12:44.766Z,17.43
2019-02-20T02:15:20.593Z,16.87
2019-02-20T02:17:45.484Z,17.23
2019-02-20T02:20:14.781Z,17.77
2019-02-20T02:22:44.159Z,16.33
2019-02-20T02:25:13.441Z,16.03
2019-02-20T02:27:42.724Z,14.93
2019-02-20T02:30:12.934Z,15.07
2019-02-20T02:32:42.240Z,13.93
2019-02-20T02:35:11.569Z,13.57
2019-02-20T02:37:40.972Z,13.50
2019-02-20T02:40:10.344Z,12.83
2019-02-20T02:42:39.728Z,12.63
2019-02-20T02:45:09.090Z,12.10
2019-02-20T02:47:38.449Z,11.93
2019-02-20T02:50:08.220Z,12.23
2019-02-20T02:52:37.510Z,13.20
2019-02-20T02:55:06.825Z,12.93
2019-02-20T02:57:36.103Z,13.17
2019-02-20T03:00:06.933Z,12.90
2019-02-20T03:02:36.230Z,12.97
2019-02-20T03:05:06.384Z,13.20
2019-02-20T03:07:35.716Z,12.40
2019-02-20T03:10:05.612Z,11.77
2019-02-20T03:12:34.893Z,12.07
2019-02-20T03:15:04.976Z,12.57
2019-02-20T03:17:34.265Z,12.17
2019-02-20T03:20:03.636Z,12.23
2019-02-20T03:22:32.933Z,12.40
2019-02-20T03:25:02.253Z,11.53
2019-02-20T03:27:31.626Z,12.07
2019-02-20T03:30:00.929Z,11.57
2019-02-20T03:32:30.259Z,12.00
2019-02-20T03:34:59.618Z,11.80
2019-02-20T03:37:28.939Z,12.27
2019-02-20T03:39:58.351Z,13.37
2019-02-20T03:42:27.630Z,13.43
2019-02-20T03:44:56.913Z,13.23
2019-02-20T03:47:26.249Z,14.10
2019-02-20T03:49:55.580Z,14.80
2019-02-20T03:52:24.878Z,13.80
2019-02-20T03:54:54.300Z,14.67
2019-02-20T03:57:24.288Z,13.60
2019-02-20T03:59:53.741Z,14.10
2019-02-20T04:02:23.020Z,14.33
2019-02-20T04:04:52.383Z,13.87
2019-02-20T04:07:21.716Z,16.50
2019-02-20T04:09:52.021Z,18.63
2019-02-20T04:12:21.743Z,20.83
2019-02-20T04:14:51.014Z,21.13
2019-02-20T04:17:20.333Z,20.67
2019-02-20T04:19:49.667Z,19.73
2019-02-20T04:22:19.000Z,21.57
2019-02-20T04:24:48.325Z,21.87
2019-02-20T04:27:18.451Z,20.07
2019-02-20T04:29:47.797Z,20.60
2019-02-20T04:32:17.092Z,19.63
2019-02-20T04:34:46.373Z,21.43
2019-02-20T04:37:15.710Z,22.07
2019-02-20T04:39:45.200Z,22.23
2019-02-20T04:42:14.492Z,23.80
2019-02-20T04:44:43.892Z,24.23
2019-02-20T04:47:13.197Z,24.40
2019-02-20T04:49:42.484Z,23.83
2019-02-20T04:52:11.819Z,25.53
2019-02-20T04:54:41.098Z,27.73
2019-02-20T04:57:10.431Z,24.63
2019-02-20T04:59:39.717Z,26.40
2019-02-20T05:02:09.049Z,25.43
2019-02-20T05:04:38.384Z,27.60
2019-02-20T05:07:07.703Z,28.57
2019-02-20T05:09:39.484Z,28.33
2019-02-20T05:12:08.047Z,30.33
2019-02-20T05:14:37.369Z,30.00
2019-02-20T05:17:06.698Z,29.90
2019-02-20T05:19:36.141Z,29.00
2019-02-20T05:22:05.416Z,29.77
2019-02-20T05:24:34.717Z,28.63
2019-02-20T05:27:04.082Z,29.50
2019-02-20T05:29:33.366Z,29.73
2019-02-20T05:32:02.692Z,29.87
2019-02-20T05:34:32.017Z,30.73
2019-02-20T05:37:01.402Z,30.73
2019-02-20T05:39:30.692Z,29.10
2019-02-20T05:41:59.970Z,29.70
2019-02-20T05:44:29.504Z,29.93
2019-02-20T05:46:58.804Z,29.20
2019-02-20T05:49:28.120Z,29.57
2019-02-20T05:51:57.401Z,30.10
2019-02-20T05:54:34.109Z,31.77
2019-02-20T05:56:57.787Z,34.53
2019-02-20T05:59:27.096Z,33.57
2019-02-20T06:01:56.464Z,31.97
2019-02-20T06:04:25.731Z,31.73
2019-02-20T06:06:55.012Z,30.97
2019-02-20T06:09:24.822Z,30.03
2019-02-20T06:11:54.714Z,31.43
2019-02-20T06:14:24.037Z,32.90
2019-02-20T06:16:53.334Z,31.73
2019-02-20T06:19:22.703Z,32.97
2019-02-20T06:21:52.008Z,33.03
2019-02-20T06:24:21.286Z,33.93
2019-02-20T06:26:50.681Z,35.23
2019-02-20T06:29:19.964Z,32.67
2019-02-20T06:31:49.299Z,33.77
2019-02-20T06:34:18.768Z,34.40
2019-02-20T06:36:48.118Z,35.10
2019-02-20T06:39:17.415Z,32.87
2019-02-20T06:41:46.704Z,33.00
2019-02-20T06:44:16.052Z,32.67
2019-02-20T06:46:45.369Z,33.57
2019-02-20T06:49:14.696Z,33.50
2019-02-20T06:51:44.025Z,33.67
2019-02-20T06:54:13.301Z,33.13
2019-02-20T06:56:42.613Z,36.43
2019-02-20T06:59:13.015Z,48.63
2019-02-20T07:01:43.437Z,57.60
2019-02-20T07:04:13.829Z,42.87
2019-02-20T07:07:10.440Z,35.97
2019-02-20T07:10:32.184Z,46.83
2019-02-20T07:13:39.261Z,51.03
2019-02-20T07:16:35.351Z,55.03
2019-02-20T07:19:17.004Z,43.50
2019-02-20T07:22:09.353Z,39.93
2019-02-20T07:25:34.389Z,39.03
2019-02-20T07:28:57.096Z,37.83
2019-02-20T07:31:26.391Z,40.00
2019-02-20T07:33:55.785Z,39.70
2019-02-20T07:36:25.204Z,42.17
2019-02-20T07:38:54.546Z,40.17
2019-02-20T07:41:24.000Z,40.00
2019-02-20T07:43:53.346Z,43.07
2019-02-20T07:46:23.739Z,41.03
2019-02-20T07:48:53.207Z,39.73
2019-02-20T07:51:22.612Z,39.17
2019-02-20T07:53:53.008Z,39.33
2019-02-20T07:56:24.050Z,38.97
2019-02-20T07:58:53.448Z,37.17
2019-02-20T08:01:22.762Z,38.33
2019-02-20T08:03:52.184Z,35.40
2019-02-20T08:06:21.530Z,36.67
2019-02-20T08:08:50.958Z,37.43
2019-02-20T08:11:20.321Z,37.10
2019-02-20T08:13:49.692Z,38.40
2019-02-20T08:16:19.048Z,34.53
2019-02-20T08:18:48.496Z,36.67
2019-02-20T08:21:17.857Z,36.07
2019-02-20T08:23:47.184Z,34.87
2019-02-20T08:26:16.550Z,35.70
2019-02-20T08:28:45.988Z,34.50
2019-02-20T08:31:15.265Z,32.83
2019-02-20T08:33:44.579Z,32.90
2019-02-20T08:36:13.990Z,31.43
2019-02-20T08:38:43.255Z,31.53
2019-02-20T08:41:12.597Z,33.30
2019-02-20T08:43:41.993Z,31.73
2019-02-20T08:46:11.368Z,30.20
2019-02-20T08:48:40.812Z,31.07
2019-02-20T08:51:10.185Z,32.10
2019-02-20T08:53:39.608Z,33.03
2019-02-20T08:56:08.991Z,33.83
2019-02-20T08:58:38.353Z,33.63
2019-02-20T09:01:07.704Z,30.63
2019-02-20T09:03:37.108Z,39.90
2019-02-20T09:06:06.475Z,29.53
2019-02-20T09:08:35.822Z,29.97
2019-02-20T09:11:05.274Z,27.93
2019-02-20T09:13:34.595Z,27.80
2019-02-20T09:16:04.012Z,26.80
2019-02-20T09:18:33.420Z,27.67
2019-02-20T09:21:02.717Z,30.53
2019-02-20T09:23:32.079Z,27.93
2019-02-20T09:26:01.433Z,26.47
2019-02-20T09:28:30.816Z,25.87
2019-02-20T09:31:00.128Z,24.83
2019-02-20T09:33:29.429Z,25.93
2019-02-20T09:35:58.835Z,26.53
2019-02-20T09:38:28.188Z,24.80
2019-02-20T09:40:58.547Z,24.13
2019-02-20T09:43:27.916Z,25.00
2019-02-20T09:45:58.292Z,24.67
2019-02-20T09:48:27.692Z,24.20
2019-02-20T09:50:57.096Z,24.37
2019-02-20T09:53:26.446Z,23.83
2019-02-20T09:55:55.759Z,24.67
2019-02-20T09:58:26.212Z,23.67
2019-02-20T10:00:55.584Z,24.33
2019-02-20T10:03:24.912Z,23.77
2019-02-20T10:05:54.297Z,23.23
2019-02-20T10:08:23.628Z,21.30
2019-02-20T10:10:52.916Z,22.47
2019-02-20T10:13:22.260Z,23.87
2019-02-20T10:15:51.557Z,23.90
2019-02-20T10:18:20.884Z,22.63
2019-02-20T10:20:50.165Z,22.50
2019-02-20T10:23:19.570Z,22.67
2019-02-20T10:25:49.972Z,22.27
2019-02-20T10:28:19.373Z,23.10
2019-02-20T10:30:48.732Z,22.03
2019-02-20T10:33:18.321Z,20.17
2019-02-20T10:35:48.657Z,20.57
2019-02-20T10:38:18.004Z,20.10
2019-02-20T10:40:47.361Z,19.57
2019-02-20T10:43:16.732Z,19.30
2019-02-20T10:45:48.064Z,18.43
2019-02-20T10:48:17.482Z,19.53
2019-02-20T10:50:46.845Z,19.03
2019-02-20T10:53:16.264Z,18.33
2019-02-20T10:55:45.681Z,18.10
2019-02-20T10:58:15.088Z,19.37
2019-02-20T11:00:44.485Z,18.43
2019-02-20T11:03:13.798Z,18.70
2019-02-20T11:05:43.380Z,18.23
2019-02-20T11:08:12.752Z,18.83
2019-02-20T11:10:42.184Z,18.10
2019-02-20T11:13:11.540Z,16.87
2019-02-20T11:15:40.884Z,18.83
2019-02-20T11:18:10.296Z,18.03
2019-02-20T11:20:48.109Z,17.40
2019-02-20T11:23:10.864Z,16.47
2019-02-20T11:25:40.196Z,16.83
2019-02-20T11:28:10.549Z,15.97
2019-02-20T11:30:40.478Z,18.10
2019-02-20T11:33:09.840Z,15.73
2019-02-20T11:35:39.185Z,15.60
2019-02-20T11:38:08.541Z,15.43
2019-02-20T11:40:37.904Z,14.63
2019-02-20T11:43:07.264Z,15.17
2019-02-20T11:45:36.700Z,15.00
2019-02-20T11:48:06.190Z,15.77
2019-02-20T11:50:36.476Z,16.43
2019-02-20T11:53:05.982Z,16.43
2019-02-20T11:55:35.279Z,16.47
2019-02-20T11:58:04.600Z,13.97
2019-02-20T12:00:33.944Z,11.87
2019-02-20T12:03:03.237Z,12.93
2019-02-20T12:05:32.648Z,13.57
2019-02-20T12:08:02.070Z,14.50
2019-02-20T12:10:31.395Z,15.47
2019-02-20T12:13:01.033Z,14.07
2019-02-20T12:15:31.478Z,14.37
2019-02-20T12:18:01.015Z,13.53
2019-02-20T12:20:30.675Z,10.97
2019-02-20T12:23:00.097Z,11.10
2019-02-20T12:25:29.509Z,11.63
2019-02-20T12:27:58.888Z,9.87
2019-02-20T12:30:28.265Z,9.83
2019-02-20T12:32:57.595Z,8.47
2019-02-20T12:35:26.937Z,8.97
2019-02-20T12:37:56.236Z,8.47
2019-02-20T12:40:25.596Z,9.20
2019-02-20T12:42:55.016Z,9.17
2019-02-20T12:45:24.398Z,8.90
2019-02-20T12:47:53.863Z,10.37
2019-02-20T12:50:24.787Z,10.17
2019-02-20T12:52:54.784Z,11.83
2019-02-20T12:55:24.116Z,11.47
2019-02-20T12:57:53.422Z,10.00
2019-02-20T13:00:24.172Z,9.13
2019-02-20T13:02:53.511Z,8.70
2019-02-20T13:05:23.010Z,7.07
2019-02-20T13:07:52.336Z,6.33
2019-02-20T13:10:21.620Z,6.10
2019-02-20T13:12:50.910Z,11.63
2019-02-20T13:15:20.248Z,12.73
2019-02-20T13:17:49.542Z,13.43
2019-02-20T13:20:18.944Z,14.00
2019-02-20T13:22:48.243Z,12.90
2019-02-20T13:25:17.700Z,13.07
2019-02-20T13:27:47.081Z,13.07
2019-02-20T13:30:16.468Z,12.80
2019-02-20T13:32:45.761Z,13.10
2019-02-20T13:35:15.075Z,13.43
2019-02-20T13:37:44.478Z,13.00
2019-02-20T13:40:14.172Z,12.30
2019-02-20T13:42:43.498Z,10.73
2019-02-20T13:45:12.844Z,9.63
2019-02-20T13:47:42.235Z,8.93
2019-02-20T13:50:13.210Z,9.40
2019-02-20T13:52:51.788Z,11.20
2019-02-20T13:55:14.456Z,11.80
2019-02-20T13:57:43.932Z,12.30
2019-02-20T14:00:14.283Z,13.17
2019-02-20T14:02:43.675Z,13.03
2019-02-20T14:05:13.069Z,12.20
2019-02-20T14:07:43.236Z,13.50
2019-02-20T14:10:13.793Z,13.47
2019-02-20T14:12:43.193Z,13.33
2019-02-20T14:15:13.012Z,14.13
2019-02-20T14:17:42.391Z,13.80
2019-02-20T14:20:12.232Z,14.50
2019-02-20T14:22:42.536Z,14.20
2019-02-20T14:25:12.386Z,12.83
2019-02-20T14:27:41.884Z,12.97
2019-02-20T14:30:11.756Z,12.17
2019-02-20T14:32:41.156Z,12.70
2019-02-20T14:35:11.420Z,11.90
2019-02-20T14:37:41.684Z,12.13
2019-02-20T14:40:11.102Z,12.97
2019-02-20T14:42:40.510Z,13.10
2019-02-20T14:45:10.868Z,14.57
2019-02-20T14:47:40.317Z,12.90
2019-02-20T14:50:10.169Z,13.40
2019-02-20T14:52:39.766Z,13.07
2019-02-20T14:55:09.185Z,13.83
2019-02-20T14:57:38.626Z,14.23
2019-02-20T15:00:09.128Z,14.43
2019-02-20T15:02:38.600Z,13.80
2019-02-20T15:05:08.414Z,14.57
2019-02-20T15:07:38.574Z,14.57
2019-02-20T15:10:08.425Z,15.23
2019-02-20T15:12:37.776Z,15.40
2019-02-20T15:15:10.481Z,15.27
2019-02-20T15:17:39.422Z,14.97
2019-02-20T15:20:08.981Z,16.60
2019-02-20T15:22:40.086Z,16.30
2019-02-20T15:25:10.068Z,16.77
2019-02-20T15:27:39.596Z,16.70
2019-02-20T15:30:12.284Z,17.93
2019-02-20T15:32:42.083Z,14.97
2019-02-20T15:35:12.029Z,16.97
2019-02-20T15:37:41.541Z,15.80
2019-02-20T15:40:10.965Z,16.43
2019-02-20T15:42:40.447Z,17.20
2019-02-20T15:45:10.424Z,17.23
2019-02-20T15:47:39.829Z,18.30
2019-02-20T15:50:10.067Z,17.80
2019-02-20T15:52:39.816Z,17.90
2019-02-20T15:55:11.410Z,18.30
2019-02-20T15:57:40.867Z,17.60
2019-02-20T16:00:12.058Z,16.57
2019-02-20T16:02:41.437Z,18.20
2019-02-20T16:05:10.962Z,18.27
2019-02-20T16:07:40.425Z,17.50
2019-02-20T16:10:10.514Z,18.00
2019-02-20T16:12:39.936Z,17.90
2019-02-20T16:15:09.922Z,18.70
2019-02-20T16:17:40.376Z,18.07
2019-02-20T16:20:11.368Z,18.73
2019-02-20T16:22:40.822Z,19.13
2019-02-20T16:25:12.704Z,18.20
2019-02-20T16:27:47.038Z,18.87
2019-02-20T16:30:14.817Z,20.43
2019-02-20T16:32:44.288Z,21.23
2019-02-20T16:35:14.600Z,23.83
2019-02-20T16:37:44.100Z,32.87
2019-02-20T16:40:14.138Z,62.97
2019-02-20T16:42:43.520Z,70.97
2019-02-20T16:45:22.034Z,27.47
2019-02-20T16:47:51.751Z,21.57
2019-02-20T16:50:21.195Z,22.37
2019-02-20T16:52:50.706Z,21.90
2019-02-20T16:55:22.434Z,22.53
2019-02-20T16:57:56.579Z,20.50
2019-02-20T17:00:23.012Z,22.70
2019-02-20T17:02:53.228Z,23.07
2019-02-20T17:05:22.689Z,23.63
2019-02-20T17:07:52.045Z,23.93
2019-02-20T17:10:21.532Z,23.73
2019-02-20T17:12:53.416Z,24.07
2019-02-20T17:15:22.895Z,23.53
2019-02-20T17:17:53.181Z,23.83
2019-02-20T17:20:23.516Z,24.70
2019-02-20T17:22:52.893Z,24.17
2019-02-20T17:25:22.631Z,23.87
2019-02-20T17:27:52.060Z,23.97
2019-02-20T17:30:21.476Z,24.77
2019-02-20T17:32:51.543Z,25.50
2019-02-20T17:35:20.995Z,26.07
2019-02-20T17:37:50.459Z,25.30
2019-02-20T17:40:19.820Z,25.23
2019-02-20T17:42:49.264Z,24.37
2019-02-20T17:45:18.899Z,23.97
2019-02-20T17:47:49.001Z,25.37
2019-02-20T17:50:18.511Z,26.80
2019-02-20T17:52:47.924Z,28.23
2019-02-20T17:55:17.297Z,27.93
2019-02-20T17:57:46.777Z,29.13
2019-02-20T18:00:18.653Z,27.23
2019-02-20T18:02:48.065Z,28.67
2019-02-20T18:05:17.498Z,27.83
2019-02-20T18:07:51.002Z,26.03
2019-02-20T18:10:18.136Z,27.83
2019-02-20T18:12:47.562Z,26.57
2019-02-20T18:15:17.197Z,25.00
2019-02-20T18:17:46.636Z,25.60
2019-02-20T18:20:16.002Z,25.43
2019-02-20T18:22:45.940Z,27.17
2019-02-20T18:25:15.296Z,27.60
2019-02-20T18:27:44.810Z,27.00
2019-02-20T18:30:14.866Z,29.80
2019-02-20T18:32:44.249Z,30.43
2019-02-20T18:35:13.759Z,29.50
2019-02-20T18:37:43.240Z,30.03
2019-02-20T18:40:13.497Z,29.47
2019-02-20T18:42:43.946Z,27.77
2019-02-20T18:45:14.223Z,28.87
2019-02-20T18:47:44.593Z,27.83
2019-02-20T18:50:14.332Z,26.47
2019-02-20T18:52:43.756Z,26.73
2019-02-20T18:55:13.568Z,27.73
2019-02-20T18:57:42.970Z,27.20
2019-02-20T19:00:15.168Z,29.27
2019-02-20T19:02:44.656Z,28.87
2019-02-20T19:05:15.162Z,28.17
2019-02-20T19:07:44.497Z,30.67
2019-02-20T19:10:17.945Z,29.60
2019-02-20T19:13:31.225Z,29.93
2019-02-20T19:16:37.617Z,30.23
2019-02-20T19:20:01.682Z,28.70
2019-02-20T19:23:20.869Z,29.17
2019-02-20T19:26:21.804Z,31.40
2019-02-20T19:29:43.206Z,30.47
2019-02-20T19:32:48.853Z,32.17
2019-02-20T19:35:47.305Z,27.27
2019-02-20T19:38:38.507Z,26.37
2019-02-20T19:41:40.953Z,26.43
2019-02-20T19:44:31.767Z,26.13
2019-02-20T19:47:50.402Z,27.20
2019-02-20T19:50:35.582Z,27.57
2019-02-20T19:53:32.900Z,28.30
2019-02-20T19:56:47.041Z,27.17
2019-02-20T19:59:51.164Z,27.27
2019-02-20T20:03:05.020Z,28.57
2019-02-20T20:06:09.431Z,28.13
2019-02-20T20:08:48.795Z,26.00
2019-02-20T20:11:44.742Z,28.17
2019-02-20T20:14:41.071Z,28.03
2019-02-20T20:18:05.347Z,36.70
2019-02-20T20:21:23.453Z,31.43
2019-02-20T20:24:28.658Z,82.07
2019-02-20T20:27:46.712Z,109.30
2019-02-20T20:31:01.835Z,123.17
2019-02-20T20:34:07.317Z,89.40
2019-02-20T20:37:06.009Z,51.20
2019-02-20T20:39:46.013Z,50.13
2019-02-20T20:42:46.811Z,49.17
2019-02-20T20:45:53.297Z,41.83
2019-02-20T20:48:54.450Z,36.67
2019-02-20T20:52:06.055Z,31.93
2019-02-20T20:55:05.180Z,31.20
2019-02-20T20:58:27.349Z,30.10
2019-02-20T21:01:48.333Z,27.10
2019-02-20T21:04:55.764Z,33.47
2019-02-20T21:07:43.879Z,59.20
2019-02-20T21:11:00.388Z,70.37
2019-02-20T21:14:02.535Z,69.87
2019-02-20T21:17:25.019Z,69.43
2019-02-20T21:20:20.327Z,57.87
2019-02-20T21:23:30.641Z,70.40
2019-02-20T21:27:02.845Z,57.20
2019-02-20T21:30:07.664Z,38.33
2019-02-20T21:32:48.207Z,30.80
2019-02-20T21:35:58.501Z,27.50
2019-02-20T21:39:09.093Z,27.63
2019-02-20T21:41:49.299Z,26.67
2019-02-20T21:44:55.525Z,26.47
2019-02-20T21:47:48.492Z,24.50
2019-02-20T21:51:26.579Z,24.73
2019-02-20T21:54:22.038Z,24.63
2019-02-20T21:57:29.524Z,23.30
2019-02-20T22:00:42.315Z,23.53
2019-02-20T22:03:48.604Z,25.27
2019-02-20T22:06:24.260Z,24.13
2019-02-20T22:10:01.224Z,24.17
2019-02-20T22:13:03.410Z,25.03
2019-02-20T22:15:47.189Z,25.87
2019-02-20T22:18:38.288Z,24.57
2019-02-20T22:21:44.106Z,25.00
2019-02-20T22:24:39.582Z,24.93
2019-02-20T22:27:36.649Z,27.00
2019-02-20T22:30:51.605Z,26.23
2019-02-20T22:33:42.968Z,26.43
2019-02-20T22:36:37.615Z,26.37
2019-02-20T22:39:18.607Z,26.00
2019-02-20T22:42:25.717Z,26.73
2019-02-20T22:45:41.573Z,27.03
2019-02-20T22:48:45.985Z,26.23
2019-02-20T22:51:25.316Z,26.57
2019-02-20T22:54:05.394Z,27.10
2019-02-20T22:57:06.342Z,24.67
2019-02-20T23:00:20.518Z,25.40
2019-02-20T23:03:43.040Z,24.93
2019-02-20T23:06:39.980Z,25.47
2019-02-20T23:09:16.681Z,25.57
2019-02-20T23:12:14.307Z,24.63
2019-02-20T23:14:53.870Z,25.13
2019-02-20T23:17:23.619Z,25.83
2019-02-20T23:19:53.435Z,24.53
2019-02-20T23:22:22.840Z,25.23
2019-02-20T23:24:52.468Z,25.87
2019-02-20T23:27:22.849Z,24.73
2019-02-20T23:29:52.198Z,25.07
2019-02-20T23:32:21.664Z,23.67
2019-02-20T23:34:51.216Z,24.20
2019-02-20T23:37:20.622Z,24.43
2019-02-20T23:39:50.033Z,25.90
2019-02-20T23:42:20.500Z,24.63
2019-02-20T23:44:49.992Z,25.00
2019-02-20T23:47:19.410Z,22.77
2019-02-20T23:49:48.806Z,22.03
2019-02-20T23:54:55.347Z,22.80
2019-02-20T23:57:25.006Z,22.77
2019-02-20T23:59:54.702Z,22.80
